sensor_id;sensor_type;location;lat;lon;timestamp;P1;durP1;ratioP1;P2;durP2;ratioP2
14688;SDS011;7432;48.728;9.154;2023-12-20T00:01:58;7.10;;;6.67;;
14688;SDS011;7432;48.728;9.154;2023-12-20T00:04:24;6.43;;;6.13;;
14688;SDS011;7432;48.728;9.154;2023-12-20T00:06:52;7.23;;;6.80;;
14688;SDS011;7432;48.728;9.154;2023-12-20T00:09:18;7.13;;;6.70;;
14688;SDS011;7432;48.728;9.154;2023-12-20T00:11:44;6.87;;;6.47;;
14688;SDS011;7432;48.728;9.154;2023-12-20T00:14:11;6.60;;;6.27;;
14688;SDS011;7432;48.728;9.154;2023-12-20T00:16:37;6.60;;;6.30;;
14688;SDS011;7432;48.728;9.154;2023-12-20T00:19:04;6.80;;;6.40;;
14688;SDS011;7432;48.728;9.154;2023-12-20T00:21:30;6.67;;;6.27;;
14688;SDS011;7432;48.728;9.154;2023-12-20T00:23:58;7.23;;;6.83;;
14688;SDS011;7432;48.728;9.154;2023-12-20T00:26:24;6.80;;;6.40;;
14688;SDS011;7432;48.728;9.154;2023-12-20T00:28:50;6.40;;;5.90;;
14688;SDS011;7432;48.728;9.154;2023-12-20T00:31:17;6.50;;;6.20;;
14688;SDS011;7432;48.728;9.154;2023-12-20T00:33:43;6.70;;;6.30;;
14688;SDS011;7432;48.728;9.154;2023-12-20T00:36:11;6.27;;;5.97;;
14688;SDS011;7432;48.728;9.154;2023-12-20T00:38:37;6.47;;;6.10;;
14688;SDS011;7432;48.728;9.154;2023-12-20T00:41:05;6.60;;;6.30;;
14688;SDS011;7432;48.728;9.154;2023-12-20T00:43:31;6.47;;;6.17;;
14688;SDS011;7432;48.728;9.154;2023-12-20T00:45:58;6.27;;;5.97;;
14688;SDS011;7432;48.728;9.154;2023-12-20T00:48:25;6.57;;;6.20;;
14688;SDS011;7432;48.728;9.154;2023-12-20T00:50:52;6.43;;;6.03;;
14688;SDS011;7432;48.728;9.154;2023-12-20T00:53:18;6.00;;;5.60;;
14688;SDS011;7432;48.728;9.154;2023-12-20T00:55:44;5.57;;;5.27;;
14688;SDS011;7432;48.728;9.154;2023-12-20T00:58:12;6.00;;;5.70;;
14688;SDS011;7432;48.728;9.154;2023-12-20T01:00:40;6.40;;;6.00;;
14688;SDS011;7432;48.728;9.154;2023-12-20T01:03:07;5.63;;;5.33;;
14688;SDS011;7432;48.728;9.154;2023-12-20T01:05:33;5.30;;;5.03;;
14688;SDS011;7432;48.728;9.154;2023-12-20T01:07:59;5.33;;;5.03;;
14688;SDS011;7432;48.728;9.154;2023-12-20T01:10:28;5.40;;;5.10;;
14688;SDS011;7432;48.728;9.154;2023-12-20T01:12:54;5.83;;;5.43;;
14688;SDS011;7432;48.728;9.154;2023-12-20T01:15:22;6.43;;;6.07;;
14688;SDS011;7432;48.728;9.154;2023-12-20T01:17:49;6.50;;;6.20;;
14688;SDS011;7432;48.728;9.154;2023-12-20T01:20:15;6.20;;;5.90;;
14688;SDS011;7432;48.728;9.154;2023-12-20T01:22:42;6.10;;;5.80;;
14688;SDS011;7432;48.728;9.154;2023-12-20T01:25:10;6.47;;;6.17;;
14688;SDS011;7432;48.728;9.154;2023-12-20T01:27:37;6.53;;;6.10;;
14688;SDS011;7432;48.728;9.154;2023-12-20T01:30:04;6.57;;;6.07;;
14688;SDS011;7432;48.728;9.154;2023-12-20T01:32:32;6.10;;;5.80;;
14688;SDS011;7432;48.728;9.154;2023-12-20T01:34:58;5.60;;;5.30;;
14688;SDS011;7432;48.728;9.154;2023-12-20T01:37:25;6.13;;;5.83;;
14688;SDS011;7432;48.728;9.154;2023-12-20T01:39:51;6.10;;;5.80;;
14688;SDS011;7432;48.728;9.154;2023-12-20T01:42:18;6.13;;;5.83;;
14688;SDS011;7432;48.728;9.154;2023-12-20T01:44:44;6.10;;;5.80;;
14688;SDS011;7432;48.728;9.154;2023-12-20T01:47:10;5.67;;;5.37;;
14688;SDS011;7432;48.728;9.154;2023-12-20T01:49:39;5.97;;;5.47;;
14688;SDS011;7432;48.728;9.154;2023-12-20T01:52:06;5.97;;;5.57;;
14688;SDS011;7432;48.728;9.154;2023-12-20T01:54:33;5.97;;;5.60;;
14688;SDS011;7432;48.728;9.154;2023-12-20T01:57:01;5.87;;;5.57;;
14688;SDS011;7432;48.728;9.154;2023-12-20T01:59:28;5.93;;;5.53;;
14688;SDS011;7432;48.728;9.154;2023-12-20T02:01:55;5.80;;;5.30;;
14688;SDS011;7432;48.728;9.154;2023-12-20T02:04:21;6.20;;;5.60;;
14688;SDS011;7432;48.728;9.154;2023-12-20T02:06:49;5.60;;;5.30;;
14688;SDS011;7432;48.728;9.154;2023-12-20T02:09:18;5.70;;;5.40;;
14688;SDS011;7432;48.728;9.154;2023-12-20T02:11:45;5.70;;;5.40;;
14688;SDS011;7432;48.728;9.154;2023-12-20T02:14:11;5.60;;;5.30;;
14688;SDS011;7432;48.728;9.154;2023-12-20T02:16:38;5.90;;;5.60;;
14688;SDS011;7432;48.728;9.154;2023-12-20T02:19:05;5.80;;;5.37;;
14688;SDS011;7432;48.728;9.154;2023-12-20T02:21:40;5.40;;;5.10;;
14688;SDS011;7432;48.728;9.154;2023-12-20T02:24:07;5.57;;;5.27;;
14688;SDS011;7432;48.728;9.154;2023-12-20T02:26:33;5.80;;;5.50;;
14688;SDS011;7432;48.728;9.154;2023-12-20T02:29:00;5.40;;;5.10;;
14688;SDS011;7432;48.728;9.154;2023-12-20T02:31:27;5.07;;;4.77;;
14688;SDS011;7432;48.728;9.154;2023-12-20T02:33:53;5.50;;;5.20;;
14688;SDS011;7432;48.728;9.154;2023-12-20T02:36:19;5.53;;;5.13;;
14688;SDS011;7432;48.728;9.154;2023-12-20T02:38:47;5.67;;;5.37;;
14688;SDS011;7432;48.728;9.154;2023-12-20T02:41:15;5.57;;;5.27;;
14688;SDS011;7432;48.728;9.154;2023-12-20T02:43:43;5.60;;;5.30;;
14688;SDS011;7432;48.728;9.154;2023-12-20T02:46:09;5.63;;;5.23;;
14688;SDS011;7432;48.728;9.154;2023-12-20T02:48:35;5.53;;;5.23;;
14688;SDS011;7432;48.728;9.154;2023-12-20T02:51:02;5.70;;;5.40;;
14688;SDS011;7432;48.728;9.154;2023-12-20T02:53:28;5.13;;;4.93;;
14688;SDS011;7432;48.728;9.154;2023-12-20T02:55:56;5.13;;;4.93;;
14688;SDS011;7432;48.728;9.154;2023-12-20T02:58:23;5.80;;;5.50;;
14688;SDS011;7432;48.728;9.154;2023-12-20T03:00:49;5.67;;;5.37;;
14688;SDS011;7432;48.728;9.154;2023-12-20T03:03:15;5.17;;;4.87;;
14688;SDS011;7432;48.728;9.154;2023-12-20T03:05:42;5.30;;;5.10;;
14688;SDS011;7432;48.728;9.154;2023-12-20T03:08:08;5.07;;;4.70;;
14688;SDS011;7432;48.728;9.154;2023-12-20T03:10:35;5.10;;;4.90;;
14688;SDS011;7432;48.728;9.154;2023-12-20T03:13:03;5.87;;;5.50;;
14688;SDS011;7432;48.728;9.154;2023-12-20T03:15:29;5.33;;;5.13;;
14688;SDS011;7432;48.728;9.154;2023-12-20T03:17:56;5.67;;;5.37;;
14688;SDS011;7432;48.728;9.154;2023-12-20T03:20:24;5.90;;;5.50;;
14688;SDS011;7432;48.728;9.154;2023-12-20T03:22:51;5.80;;;5.50;;
14688;SDS011;7432;48.728;9.154;2023-12-20T03:25:17;5.33;;;5.13;;
14688;SDS011;7432;48.728;9.154;2023-12-20T03:27:43;4.60;;;4.40;;
14688;SDS011;7432;48.728;9.154;2023-12-20T03:30:11;5.73;;;5.33;;
14688;SDS011;7432;48.728;9.154;2023-12-20T03:32:38;4.33;;;4.10;;
14688;SDS011;7432;48.728;9.154;2023-12-20T03:35:05;5.90;;;5.60;;
14688;SDS011;7432;48.728;9.154;2023-12-20T03:37:31;5.40;;;5.13;;
14688;SDS011;7432;48.728;9.154;2023-12-20T03:39:58;5.10;;;4.90;;
14688;SDS011;7432;48.728;9.154;2023-12-20T03:42:25;5.03;;;4.83;;
14688;SDS011;7432;48.728;9.154;2023-12-20T03:44:51;5.33;;;5.13;;
14688;SDS011;7432;48.728;9.154;2023-12-20T03:47:19;5.30;;;5.00;;
14688;SDS011;7432;48.728;9.154;2023-12-20T03:49:45;5.33;;;5.13;;
14688;SDS011;7432;48.728;9.154;2023-12-20T03:52:11;4.43;;;4.23;;
14688;SDS011;7432;48.728;9.154;2023-12-20T03:54:38;4.30;;;4.10;;
14688;SDS011;7432;48.728;9.154;2023-12-20T03:57:04;4.27;;;4.07;;
14688;SDS011;7432;48.728;9.154;2023-12-20T03:59:34;5.63;;;5.33;;
14688;SDS011;7432;48.728;9.154;2023-12-20T04:02:01;4.70;;;4.50;;
14688;SDS011;7432;48.728;9.154;2023-12-20T04:04:29;5.57;;;5.27;;
14688;SDS011;7432;48.728;9.154;2023-12-20T04:06:55;5.40;;;5.20;;
14688;SDS011;7432;48.728;9.154;2023-12-20T04:09:21;5.63;;;5.33;;
14688;SDS011;7432;48.728;9.154;2023-12-20T04:11:48;5.77;;;5.47;;
14688;SDS011;7432;48.728;9.154;2023-12-20T04:14:14;5.60;;;5.30;;
14688;SDS011;7432;48.728;9.154;2023-12-20T04:16:40;5.63;;;5.33;;
14688;SDS011;7432;48.728;9.154;2023-12-20T04:19:07;5.90;;;5.60;;
14688;SDS011;7432;48.728;9.154;2023-12-20T04:21:35;5.57;;;5.37;;
14688;SDS011;7432;48.728;9.154;2023-12-20T04:24:01;5.43;;;5.13;;
14688;SDS011;7432;48.728;9.154;2023-12-20T04:26:28;5.80;;;5.50;;
14688;SDS011;7432;48.728;9.154;2023-12-20T04:28:54;5.30;;;5.10;;
14688;SDS011;7432;48.728;9.154;2023-12-20T04:31:20;5.00;;;4.80;;
14688;SDS011;7432;48.728;9.154;2023-12-20T04:33:47;5.20;;;5.00;;
14688;SDS011;7432;48.728;9.154;2023-12-20T04:36:13;5.07;;;4.70;;
14688;SDS011;7432;48.728;9.154;2023-12-20T04:38:41;4.27;;;4.07;;
14688;SDS011;7432;48.728;9.154;2023-12-20T04:41:07;4.70;;;4.50;;
14688;SDS011;7432;48.728;9.154;2023-12-20T04:43:34;4.97;;;4.77;;
14688;SDS011;7432;48.728;9.154;2023-12-20T04:46:00;5.80;;;5.50;;
14688;SDS011;7432;48.728;9.154;2023-12-20T04:48:26;4.07;;;3.87;;
14688;SDS011;7432;48.728;9.154;2023-12-20T04:50:53;6.10;;;5.73;;
14688;SDS011;7432;48.728;9.154;2023-12-20T04:53:19;5.30;;;5.00;;
14688;SDS011;7432;48.728;9.154;2023-12-20T04:55:47;5.23;;;5.03;;
14688;SDS011;7432;48.728;9.154;2023-12-20T04:58:13;5.40;;;5.00;;
14688;SDS011;7432;48.728;9.154;2023-12-20T05:00:39;5.70;;;5.40;;
14688;SDS011;7432;48.728;9.154;2023-12-20T05:03:06;5.80;;;5.50;;
14688;SDS011;7432;48.728;9.154;2023-12-20T05:05:33;4.43;;;4.23;;
14688;SDS011;7432;48.728;9.154;2023-12-20T05:07:59;5.27;;;4.87;;
14688;SDS011;7432;48.728;9.154;2023-12-20T05:10:26;5.57;;;5.27;;
14688;SDS011;7432;48.728;9.154;2023-12-20T05:12:54;4.00;;;3.80;;
14688;SDS011;7432;48.728;9.154;2023-12-20T05:15:20;5.47;;;5.17;;
14688;SDS011;7432;48.728;9.154;2023-12-20T05:17:46;5.03;;;4.73;;
14688;SDS011;7432;48.728;9.154;2023-12-20T05:20:13;5.57;;;5.20;;
14688;SDS011;7432;48.728;9.154;2023-12-20T05:22:40;4.70;;;4.40;;
14688;SDS011;7432;48.728;9.154;2023-12-20T05:25:07;5.27;;;5.07;;
14688;SDS011;7432;48.728;9.154;2023-12-20T05:27:33;5.53;;;5.30;;
14688;SDS011;7432;48.728;9.154;2023-12-20T05:30:01;5.33;;;4.97;;
14688;SDS011;7432;48.728;9.154;2023-12-20T05:32:29;5.20;;;4.80;;
14688;SDS011;7432;48.728;9.154;2023-12-20T05:34:56;5.33;;;5.03;;
14688;SDS011;7432;48.728;9.154;2023-12-20T05:37:22;5.23;;;4.93;;
14688;SDS011;7432;48.728;9.154;2023-12-20T05:39:49;6.13;;;5.50;;
14688;SDS011;7432;48.728;9.154;2023-12-20T05:42:15;4.17;;;3.93;;
14688;SDS011;7432;48.728;9.154;2023-12-20T05:44:41;4.80;;;4.50;;
14688;SDS011;7432;48.728;9.154;2023-12-20T05:47:09;5.57;;;5.13;;
14688;SDS011;7432;48.728;9.154;2023-12-20T05:49:35;5.17;;;4.87;;
14688;SDS011;7432;48.728;9.154;2023-12-20T05:52:02;5.03;;;4.73;;
14688;SDS011;7432;48.728;9.154;2023-12-20T05:54:28;5.13;;;4.93;;
14688;SDS011;7432;48.728;9.154;2023-12-20T05:56:55;5.30;;;5.00;;
14688;SDS011;7432;48.728;9.154;2023-12-20T05:59:21;5.57;;;5.17;;
14688;SDS011;7432;48.728;9.154;2023-12-20T06:01:47;5.07;;;4.87;;
14688;SDS011;7432;48.728;9.154;2023-12-20T06:04:15;6.63;;;6.13;;
14688;SDS011;7432;48.728;9.154;2023-12-20T06:06:42;5.23;;;5.00;;
14688;SDS011;7432;48.728;9.154;2023-12-20T06:09:08;5.30;;;5.00;;
14688;SDS011;7432;48.728;9.154;2023-12-20T06:11:35;5.40;;;5.00;;
14688;SDS011;7432;48.728;9.154;2023-12-20T06:14:01;4.87;;;4.67;;
14688;SDS011;7432;48.728;9.154;2023-12-20T06:16:27;4.73;;;4.53;;
14688;SDS011;7432;48.728;9.154;2023-12-20T06:18:54;4.93;;;4.63;;
14688;SDS011;7432;48.728;9.154;2023-12-20T06:21:21;5.23;;;4.93;;
14688;SDS011;7432;48.728;9.154;2023-12-20T06:23:48;3.87;;;3.67;;
14688;SDS011;7432;48.728;9.154;2023-12-20T06:26:14;4.77;;;4.57;;
14688;SDS011;7432;48.728;9.154;2023-12-20T06:28:40;5.27;;;4.80;;
14688;SDS011;7432;48.728;9.154;2023-12-20T06:31:07;5.63;;;5.33;;
14688;SDS011;7432;48.728;9.154;2023-12-20T06:33:34;6.40;;;5.27;;
14688;SDS011;7432;48.728;9.154;2023-12-20T06:36:00;5.30;;;4.90;;
14688;SDS011;7432;48.728;9.154;2023-12-20T06:38:28;5.33;;;5.03;;
14688;SDS011;7432;48.728;9.154;2023-12-20T06:40:54;5.40;;;5.10;;
14688;SDS011;7432;48.728;9.154;2023-12-20T06:43:22;5.50;;;5.10;;
14688;SDS011;7432;48.728;9.154;2023-12-20T06:45:48;5.43;;;5.13;;
14688;SDS011;7432;48.728;9.154;2023-12-20T06:48:15;5.33;;;4.93;;
14688;SDS011;7432;48.728;9.154;2023-12-20T06:50:42;5.30;;;5.00;;
14688;SDS011;7432;48.728;9.154;2023-12-20T06:53:08;5.60;;;5.30;;
14688;SDS011;7432;48.728;9.154;2023-12-20T06:55:36;6.13;;;5.20;;
14688;SDS011;7432;48.728;9.154;2023-12-20T06:58:03;4.33;;;4.13;;
14688;SDS011;7432;48.728;9.154;2023-12-20T07:00:30;5.97;;;5.47;;
14688;SDS011;7432;48.728;9.154;2023-12-20T07:02:56;6.40;;;5.23;;
14688;SDS011;7432;48.728;9.154;2023-12-20T07:05:21;6.20;;;5.80;;
14688;SDS011;7432;48.728;9.154;2023-12-20T07:07:48;5.47;;;5.17;;
14688;SDS011;7432;48.728;9.154;2023-12-20T07:10:14;5.30;;;5.00;;
14688;SDS011;7432;48.728;9.154;2023-12-20T07:12:42;5.70;;;5.30;;
14688;SDS011;7432;48.728;9.154;2023-12-20T07:15:09;5.50;;;5.07;;
14688;SDS011;7432;48.728;9.154;2023-12-20T07:17:36;5.73;;;5.40;;
14688;SDS011;7432;48.728;9.154;2023-12-20T07:20:02;5.63;;;5.23;;
14688;SDS011;7432;48.728;9.154;2023-12-20T07:22:29;5.37;;;4.87;;
14688;SDS011;7432;48.728;9.154;2023-12-20T07:24:57;5.20;;;4.90;;
14688;SDS011;7432;48.728;9.154;2023-12-20T07:27:23;5.27;;;4.87;;
14688;SDS011;7432;48.728;9.154;2023-12-20T07:29:51;5.53;;;5.03;;
14688;SDS011;7432;48.728;9.154;2023-12-20T07:32:17;4.40;;;4.00;;
14688;SDS011;7432;48.728;9.154;2023-12-20T07:34:44;5.50;;;5.20;;
14688;SDS011;7432;48.728;9.154;2023-12-20T07:37:10;5.70;;;5.40;;
14688;SDS011;7432;48.728;9.154;2023-12-20T07:39:37;6.20;;;5.70;;
14688;SDS011;7432;48.728;9.154;2023-12-20T07:42:03;5.97;;;5.60;;
14688;SDS011;7432;48.728;9.154;2023-12-20T07:44:30;6.03;;;5.63;;
14688;SDS011;7432;48.728;9.154;2023-12-20T07:46:58;6.07;;;5.77;;
14688;SDS011;7432;48.728;9.154;2023-12-20T07:49:23;6.83;;;6.43;;
14688;SDS011;7432;48.728;9.154;2023-12-20T07:51:50;6.27;;;5.87;;
14688;SDS011;7432;48.728;9.154;2023-12-20T07:54:16;6.97;;;6.47;;
14688;SDS011;7432;48.728;9.154;2023-12-20T07:56:42;6.23;;;5.73;;
14688;SDS011;7432;48.728;9.154;2023-12-20T07:59:09;6.53;;;6.13;;
14688;SDS011;7432;48.728;9.154;2023-12-20T08:01:35;7.03;;;6.43;;
14688;SDS011;7432;48.728;9.154;2023-12-20T08:04:03;7.67;;;6.97;;
14688;SDS011;7432;48.728;9.154;2023-12-20T08:06:30;7.27;;;6.73;;
14688;SDS011;7432;48.728;9.154;2023-12-20T08:08:56;6.33;;;5.93;;
14688;SDS011;7432;48.728;9.154;2023-12-20T08:11:23;6.97;;;6.47;;
14688;SDS011;7432;48.728;9.154;2023-12-20T08:13:49;7.43;;;6.93;;
14688;SDS011;7432;48.728;9.154;2023-12-20T08:16:16;6.60;;;6.20;;
14688;SDS011;7432;48.728;9.154;2023-12-20T08:18:42;7.27;;;6.73;;
14688;SDS011;7432;48.728;9.154;2023-12-20T08:21:10;8.10;;;7.50;;
14688;SDS011;7432;48.728;9.154;2023-12-20T08:23:36;6.83;;;6.33;;
14688;SDS011;7432;48.728;9.154;2023-12-20T08:26:03;6.60;;;6.10;;
14688;SDS011;7432;48.728;9.154;2023-12-20T08:28:31;5.97;;;5.57;;
14688;SDS011;7432;48.728;9.154;2023-12-20T08:30:57;7.07;;;6.40;;
14688;SDS011;7432;48.728;9.154;2023-12-20T08:33:23;6.93;;;6.37;;
14688;SDS011;7432;48.728;9.154;2023-12-20T08:35:50;7.17;;;6.67;;
14688;SDS011;7432;48.728;9.154;2023-12-20T08:38:17;7.43;;;6.33;;
14688;SDS011;7432;48.728;9.154;2023-12-20T08:40:44;6.63;;;6.23;;
14688;SDS011;7432;48.728;9.154;2023-12-20T08:43:10;6.90;;;6.40;;
14688;SDS011;7432;48.728;9.154;2023-12-20T08:45:37;7.50;;;7.00;;
14688;SDS011;7432;48.728;9.154;2023-12-20T08:48:04;7.73;;;7.17;;
14688;SDS011;7432;48.728;9.154;2023-12-20T08:50:31;6.87;;;6.43;;
14688;SDS011;7432;48.728;9.154;2023-12-20T08:52:57;7.43;;;6.83;;
14688;SDS011;7432;48.728;9.154;2023-12-20T08:55:25;7.00;;;6.50;;
14688;SDS011;7432;48.728;9.154;2023-12-20T08:57:51;7.70;;;7.20;;
14688;SDS011;7432;48.728;9.154;2023-12-20T09:00:18;6.57;;;6.07;;
14688;SDS011;7432;48.728;9.154;2023-12-20T09:02:45;7.33;;;6.77;;
14688;SDS011;7432;48.728;9.154;2023-12-20T09:05:12;6.77;;;6.27;;
14688;SDS011;7432;48.728;9.154;2023-12-20T09:07:38;6.47;;;6.07;;
14688;SDS011;7432;48.728;9.154;2023-12-20T09:10:05;7.57;;;7.00;;
14688;SDS011;7432;48.728;9.154;2023-12-20T09:12:33;7.47;;;6.87;;
14688;SDS011;7432;48.728;9.154;2023-12-20T09:15:00;7.00;;;6.40;;
14688;SDS011;7432;48.728;9.154;2023-12-20T09:17:28;7.53;;;6.80;;
14688;SDS011;7432;48.728;9.154;2023-12-20T09:19:53;7.40;;;6.70;;
14688;SDS011;7432;48.728;9.154;2023-12-20T09:22:19;6.83;;;6.33;;
14688;SDS011;7432;48.728;9.154;2023-12-20T09:24:46;6.67;;;6.07;;
14688;SDS011;7432;48.728;9.154;2023-12-20T09:27:12;6.90;;;6.40;;
14688;SDS011;7432;48.728;9.154;2023-12-20T09:29:40;6.97;;;6.33;;
14688;SDS011;7432;48.728;9.154;2023-12-20T09:32:06;6.53;;;6.03;;
14688;SDS011;7432;48.728;9.154;2023-12-20T09:34:33;7.43;;;6.73;;
14688;SDS011;7432;48.728;9.154;2023-12-20T09:36:59;6.50;;;5.90;;
14688;SDS011;7432;48.728;9.154;2023-12-20T09:39:26;7.20;;;6.50;;
14688;SDS011;7432;48.728;9.154;2023-12-20T09:41:57;7.97;;;7.17;;
14688;SDS011;7432;48.728;9.154;2023-12-20T09:44:26;7.00;;;6.30;;
14688;SDS011;7432;48.728;9.154;2023-12-20T09:46:55;8.57;;;6.43;;
14688;SDS011;7432;48.728;9.154;2023-12-20T09:49:22;8.07;;;6.70;;
14688;SDS011;7432;48.728;9.154;2023-12-20T09:51:49;7.50;;;6.13;;
14688;SDS011;7432;48.728;9.154;2023-12-20T09:54:17;7.03;;;6.43;;
14688;SDS011;7432;48.728;9.154;2023-12-20T09:56:44;5.87;;;5.37;;
14688;SDS011;7432;48.728;9.154;2023-12-20T09:59:10;8.00;;;6.33;;
14688;SDS011;7432;48.728;9.154;2023-12-20T10:01:37;6.67;;;6.13;;
14688;SDS011;7432;48.728;9.154;2023-12-20T10:04:07;10.27;;;7.13;;
14688;SDS011;7432;48.728;9.154;2023-12-20T10:06:37;7.57;;;6.87;;
14688;SDS011;7432;48.728;9.154;2023-12-20T10:09:03;6.40;;;5.80;;
14688;SDS011;7432;48.728;9.154;2023-12-20T10:11:30;7.00;;;5.93;;
14688;SDS011;7432;48.728;9.154;2023-12-20T10:13:58;6.90;;;6.30;;
14688;SDS011;7432;48.728;9.154;2023-12-20T10:16:26;7.43;;;6.50;;
14688;SDS011;7432;48.728;9.154;2023-12-20T10:18:52;7.27;;;6.13;;
14688;SDS011;7432;48.728;9.154;2023-12-20T10:21:20;9.80;;;7.03;;
14688;SDS011;7432;48.728;9.154;2023-12-20T10:23:47;7.80;;;6.47;;
14688;SDS011;7432;48.728;9.154;2023-12-20T10:26:18;6.70;;;6.20;;
14688;SDS011;7432;48.728;9.154;2023-12-20T10:28:46;8.20;;;7.47;;
14688;SDS011;7432;48.728;9.154;2023-12-20T10:31:21;7.23;;;6.40;;
14688;SDS011;7432;48.728;9.154;2023-12-20T10:33:52;8.07;;;6.70;;
14688;SDS011;7432;48.728;9.154;2023-12-20T10:36:18;5.40;;;4.93;;
14688;SDS011;7432;48.728;9.154;2023-12-20T10:38:46;8.90;;;6.80;;
14688;SDS011;7432;48.728;9.154;2023-12-20T10:41:16;7.87;;;6.73;;
14688;SDS011;7432;48.728;9.154;2023-12-20T10:43:49;6.17;;;5.87;;
14688;SDS011;7432;48.728;9.154;2023-12-20T10:46:17;7.27;;;6.77;;
14688;SDS011;7432;48.728;9.154;2023-12-20T10:48:45;7.40;;;6.90;;
14688;SDS011;7432;48.728;9.154;2023-12-20T10:51:13;7.20;;;6.70;;
14688;SDS011;7432;48.728;9.154;2023-12-20T10:53:43;6.80;;;6.20;;
14688;SDS011;7432;48.728;9.154;2023-12-20T10:56:12;7.60;;;7.00;;
14688;SDS011;7432;48.728;9.154;2023-12-20T10:58:42;7.50;;;6.90;;
14688;SDS011;7432;48.728;9.154;2023-12-20T11:01:09;7.53;;;6.93;;
14688;SDS011;7432;48.728;9.154;2023-12-20T11:03:38;7.63;;;6.93;;
14688;SDS011;7432;48.728;9.154;2023-12-20T11:06:11;7.33;;;6.63;;
14688;SDS011;7432;48.728;9.154;2023-12-20T11:08:46;10.00;;;6.47;;
14688;SDS011;7432;48.728;9.154;2023-12-20T11:11:20;7.80;;;7.10;;
14688;SDS011;7432;48.728;9.154;2023-12-20T11:13:53;6.90;;;6.50;;
14688;SDS011;7432;48.728;9.154;2023-12-20T11:16:24;9.53;;;6.87;;
14688;SDS011;7432;48.728;9.154;2023-12-20T11:18:50;7.57;;;6.77;;
14688;SDS011;7432;48.728;9.154;2023-12-20T11:21:17;6.30;;;5.63;;
14688;SDS011;7432;48.728;9.154;2023-12-20T11:23:43;8.77;;;7.30;;
14688;SDS011;7432;48.728;9.154;2023-12-20T11:26:10;7.40;;;6.80;;
14688;SDS011;7432;48.728;9.154;2023-12-20T11:28:38;6.23;;;5.90;;
14688;SDS011;7432;48.728;9.154;2023-12-20T11:31:04;7.77;;;6.97;;
14688;SDS011;7432;48.728;9.154;2023-12-20T11:33:35;7.43;;;6.73;;
14688;SDS011;7432;48.728;9.154;2023-12-20T11:36:03;7.83;;;7.00;;
14688;SDS011;7432;48.728;9.154;2023-12-20T11:38:38;7.57;;;6.97;;
14688;SDS011;7432;48.728;9.154;2023-12-20T11:41:05;7.27;;;6.43;;
14688;SDS011;7432;48.728;9.154;2023-12-20T11:43:32;7.47;;;6.90;;
14688;SDS011;7432;48.728;9.154;2023-12-20T11:46:06;7.70;;;7.10;;
14688;SDS011;7432;48.728;9.154;2023-12-20T11:48:34;7.27;;;6.70;;
14688;SDS011;7432;48.728;9.154;2023-12-20T11:51:01;9.13;;;7.40;;
14688;SDS011;7432;48.728;9.154;2023-12-20T11:53:28;7.80;;;7.07;;
14688;SDS011;7432;48.728;9.154;2023-12-20T11:55:55;7.43;;;6.73;;
14688;SDS011;7432;48.728;9.154;2023-12-20T11:58:22;7.33;;;6.63;;
14688;SDS011;7432;48.728;9.154;2023-12-20T12:00:49;7.57;;;7.03;;
14688;SDS011;7432;48.728;9.154;2023-12-20T12:03:17;8.30;;;6.90;;
14688;SDS011;7432;48.728;9.154;2023-12-20T12:05:46;8.23;;;6.80;;
14688;SDS011;7432;48.728;9.154;2023-12-20T12:08:13;10.97;;;6.97;;
14688;SDS011;7432;48.728;9.154;2023-12-20T12:10:40;10.07;;;7.70;;
14688;SDS011;7432;48.728;9.154;2023-12-20T12:13:06;7.13;;;5.87;;
14688;SDS011;7432;48.728;9.154;2023-12-20T12:15:33;6.07;;;5.57;;
14688;SDS011;7432;48.728;9.154;2023-12-20T12:17:59;6.27;;;5.67;;
14688;SDS011;7432;48.728;9.154;2023-12-20T12:20:27;7.10;;;6.50;;
14688;SDS011;7432;48.728;9.154;2023-12-20T12:22:57;10.30;;;6.20;;
14688;SDS011;7432;48.728;9.154;2023-12-20T12:25:23;6.60;;;5.90;;
14688;SDS011;7432;48.728;9.154;2023-12-20T12:27:50;6.80;;;6.20;;
14688;SDS011;7432;48.728;9.154;2023-12-20T12:30:17;8.67;;;7.17;;
14688;SDS011;7432;48.728;9.154;2023-12-20T12:32:43;9.47;;;7.90;;
14688;SDS011;7432;48.728;9.154;2023-12-20T12:35:10;8.80;;;7.90;;
14688;SDS011;7432;48.728;9.154;2023-12-20T12:37:38;8.47;;;7.00;;
14688;SDS011;7432;48.728;9.154;2023-12-20T12:40:06;7.50;;;6.53;;
14688;SDS011;7432;48.728;9.154;2023-12-20T12:42:35;7.93;;;7.23;;
14688;SDS011;7432;48.728;9.154;2023-12-20T12:45:02;9.00;;;7.23;;
14688;SDS011;7432;48.728;9.154;2023-12-20T12:47:29;7.77;;;7.07;;
14688;SDS011;7432;48.728;9.154;2023-12-20T12:49:56;12.53;;;7.60;;
14688;SDS011;7432;48.728;9.154;2023-12-20T12:52:22;8.00;;;7.20;;
14688;SDS011;7432;48.728;9.154;2023-12-20T12:54:50;11.00;;;7.33;;
14688;SDS011;7432;48.728;9.154;2023-12-20T12:57:16;8.53;;;7.63;;
14688;SDS011;7432;48.728;9.154;2023-12-20T12:59:43;8.23;;;7.33;;
14688;SDS011;7432;48.728;9.154;2023-12-20T13:02:11;11.07;;;7.70;;
14688;SDS011;7432;48.728;9.154;2023-12-20T13:04:37;9.10;;;7.07;;
14688;SDS011;7432;48.728;9.154;2023-12-20T13:07:04;8.47;;;7.17;;
14688;SDS011;7432;48.728;9.154;2023-12-20T13:09:30;8.07;;;7.37;;
14688;SDS011;7432;48.728;9.154;2023-12-20T13:11:58;8.00;;;6.83;;
14688;SDS011;7432;48.728;9.154;2023-12-20T13:14:27;8.07;;;7.17;;
14688;SDS011;7432;48.728;9.154;2023-12-20T13:16:54;7.53;;;6.97;;
14688;SDS011;7432;48.728;9.154;2023-12-20T13:19:21;10.77;;;7.33;;
14688;SDS011;7432;48.728;9.154;2023-12-20T13:21:47;10.83;;;7.40;;
14688;SDS011;7432;48.728;9.154;2023-12-20T13:24:13;12.53;;;7.93;;
14688;SDS011;7432;48.728;9.154;2023-12-20T13:26:40;9.70;;;7.47;;
14688;SDS011;7432;48.728;9.154;2023-12-20T13:29:08;7.23;;;6.60;;
14688;SDS011;7432;48.728;9.154;2023-12-20T13:31:34;7.70;;;7.13;;
14688;SDS011;7432;48.728;9.154;2023-12-20T13:34:02;10.33;;;7.47;;
14688;SDS011;7432;48.728;9.154;2023-12-20T13:36:28;10.03;;;6.83;;
14688;SDS011;7432;48.728;9.154;2023-12-20T13:38:55;6.77;;;6.37;;
14688;SDS011;7432;48.728;9.154;2023-12-20T13:41:21;7.60;;;6.93;;
14688;SDS011;7432;48.728;9.154;2023-12-20T13:43:48;7.37;;;6.67;;
14688;SDS011;7432;48.728;9.154;2023-12-20T13:46:15;10.80;;;7.00;;
14688;SDS011;7432;48.728;9.154;2023-12-20T13:48:42;8.10;;;7.30;;
14688;SDS011;7432;48.728;9.154;2023-12-20T13:51:08;7.73;;;6.93;;
14688;SDS011;7432;48.728;9.154;2023-12-20T13:53:34;7.60;;;7.00;;
14688;SDS011;7432;48.728;9.154;2023-12-20T13:56:01;7.63;;;7.00;;
14688;SDS011;7432;48.728;9.154;2023-12-20T13:58:27;8.13;;;6.30;;
14688;SDS011;7432;48.728;9.154;2023-12-20T14:00:54;7.03;;;6.20;;
14688;SDS011;7432;48.728;9.154;2023-12-20T14:03:21;7.53;;;6.93;;
14688;SDS011;7432;48.728;9.154;2023-12-20T14:05:48;8.77;;;6.83;;
14688;SDS011;7432;48.728;9.154;2023-12-20T14:08:14;8.47;;;7.83;;
14688;SDS011;7432;48.728;9.154;2023-12-20T14:10:40;7.83;;;7.23;;
14688;SDS011;7432;48.728;9.154;2023-12-20T14:13:07;8.90;;;7.30;;
14688;SDS011;7432;48.728;9.154;2023-12-20T14:15:33;7.50;;;6.80;;
14688;SDS011;7432;48.728;9.154;2023-12-20T14:18:02;7.77;;;7.17;;
14688;SDS011;7432;48.728;9.154;2023-12-20T14:20:31;7.83;;;7.03;;
14688;SDS011;7432;48.728;9.154;2023-12-20T14:22:59;8.07;;;7.37;;
14688;SDS011;7432;48.728;9.154;2023-12-20T14:25:25;9.13;;;7.20;;
14688;SDS011;7432;48.728;9.154;2023-12-20T14:27:52;8.13;;;7.43;;
14688;SDS011;7432;48.728;9.154;2023-12-20T14:30:18;8.90;;;7.33;;
14688;SDS011;7432;48.728;9.154;2023-12-20T14:32:45;7.63;;;6.93;;
14688;SDS011;7432;48.728;9.154;2023-12-20T14:35:12;7.27;;;6.67;;
14688;SDS011;7432;48.728;9.154;2023-12-20T14:37:40;6.67;;;6.07;;
14688;SDS011;7432;48.728;9.154;2023-12-20T14:40:07;6.80;;;6.30;;
14688;SDS011;7432;48.728;9.154;2023-12-20T14:42:39;8.07;;;7.03;;
14688;SDS011;7432;48.728;9.154;2023-12-20T14:45:06;7.57;;;6.97;;
14688;SDS011;7432;48.728;9.154;2023-12-20T14:47:33;10.33;;;7.70;;
14688;SDS011;7432;48.728;9.154;2023-12-20T14:50:01;7.40;;;6.80;;
14688;SDS011;7432;48.728;9.154;2023-12-20T14:52:28;6.70;;;6.23;;
14688;SDS011;7432;48.728;9.154;2023-12-20T14:54:55;8.70;;;6.63;;
14688;SDS011;7432;48.728;9.154;2023-12-20T14:57:22;8.52;;;7.75;;
14688;SDS011;7432;48.728;9.154;2023-12-20T14:59:48;7.73;;;7.13;;